Southern, Louisiana
Current Conditions -  °F | °C
As of 1:53 PM on Wednesday 26 Nov 2014 (Local Time) from KBTR Reporting Station
Clear Clear  
Wind Chill: 70°   Ceiling: Unl
Heat Index: 70°   Visibility: 10mi
Dew Point: 34°   Wind: 20mph
Humidity: 27%   Direction: 250°WSW
Pressure: 30.15"   Gusts: 26mph
Location:  30.5234°N, 91.1905°W
Report Text: KBTR 261953Z 25017G23KT 10SM CLR 21/01 A3015 RMK AO2 PK WND 26026/1920 SLP210 T02110011
Loading
Personal Weather Stations






























Interactive Weather Map New forecast layout! Learn more

10-Day Weather Forecast

Advertisements
Track Severe Weather on mobile